createdAt,value
2018-04-30T00:00:25.601Z,940.98
2018-04-30T00:01:25.629Z,940.98
2018-04-30T00:02:25.653Z,940.94
2018-04-30T00:03:25.678Z,940.9
2018-04-30T00:04:25.704Z,940.9
2018-04-30T00:05:25.732Z,940.88
2018-04-30T00:06:25.756Z,940.91
2018-04-30T00:07:25.792Z,940.9
2018-04-30T00:08:25.858Z,940.86
2018-04-30T00:09:25.834Z,940.86
2018-04-30T00:10:25.857Z,940.86
2018-04-30T00:11:25.883Z,940.87
2018-04-30T00:12:25.911Z,940.85
2018-04-30T00:13:25.937Z,940.82
2018-04-30T00:14:25.960Z,940.82
2018-04-30T00:15:26.014Z,940.83
2018-04-30T00:16:26.014Z,940.81
2018-04-30T00:17:26.037Z,940.86
2018-04-30T00:18:26.064Z,940.8
2018-04-30T00:19:26.089Z,940.86
2018-04-30T00:20:26.114Z,940.85
2018-04-30T00:21:26.139Z,940.84
2018-04-30T00:22:26.166Z,940.81
2018-04-30T00:23:26.243Z,940.79
2018-04-30T00:24:26.220Z,940.81
2018-04-30T00:25:26.243Z,940.81
2018-04-30T00:26:26.268Z,940.78
2018-04-30T00:27:26.294Z,940.79
2018-04-30T00:28:26.318Z,940.79
2018-04-30T00:29:26.344Z,940.73
2018-04-30T00:30:26.373Z,940.75
2018-04-30T00:31:26.398Z,940.73
2018-04-30T00:32:26.424Z,940.69
2018-04-30T00:33:26.448Z,940.7
2018-04-30T00:34:26.474Z,940.71
2018-04-30T00:35:26.501Z,940.7
2018-04-30T00:36:26.526Z,940.72
2018-04-30T00:37:26.553Z,940.76
2018-04-30T00:38:26.628Z,940.73
2018-04-30T00:39:26.647Z,940.77
2018-04-30T00:40:26.633Z,940.76
2018-04-30T00:41:26.655Z,940.73
2018-04-30T00:42:26.681Z,940.74
2018-04-30T00:43:26.707Z,940.71
2018-04-30T00:44:26.732Z,940.68
2018-04-30T00:45:26.757Z,940.71
2018-04-30T00:46:26.785Z,940.7
2018-04-30T00:47:26.809Z,940.73
2018-04-30T00:48:26.835Z,940.72
2018-04-30T00:49:26.864Z,940.74
2018-04-30T00:50:26.886Z,940.74
2018-04-30T00:51:26.911Z,940.72
2018-04-30T00:52:26.937Z,940.71
2018-04-30T00:53:27.014Z,940.72
2018-04-30T00:54:26.990Z,940.67
2018-04-30T00:55:27.014Z,940.72
2018-04-30T00:56:27.048Z,940.7
2018-04-30T00:57:27.069Z,940.69
2018-04-30T00:58:27.093Z,940.67
2018-04-30T00:59:27.117Z,940.69
2018-04-30T01:00:27.143Z,940.65
2018-04-30T01:01:27.168Z,940.66
2018-04-30T01:02:27.194Z,940.62
2018-04-30T01:03:27.310Z,940.65
2018-04-30T01:04:27.249Z,940.62
2018-04-30T01:05:27.271Z,940.63
2018-04-30T01:06:27.298Z,940.62
2018-04-30T01:07:27.323Z,940.64
2018-04-30T01:08:27.399Z,940.65
2018-04-30T01:09:27.375Z,940.63
2018-04-30T01:10:27.403Z,940.68
2018-04-30T01:11:27.427Z,940.62
2018-04-30T01:12:27.450Z,940.63
2018-04-30T01:13:27.475Z,940.59
2018-04-30T01:14:27.501Z,940.56
2018-04-30T01:15:27.527Z,940.54
2018-04-30T01:16:27.552Z,940.53
2018-04-30T01:17:27.581Z,940.54
2018-04-30T01:18:27.608Z,940.49
2018-04-30T01:19:27.630Z,940.48
2018-04-30T01:20:27.656Z,940.48
2018-04-30T01:21:27.681Z,940.48
2018-04-30T01:22:27.709Z,940.47
2018-04-30T01:23:27.784Z,940.44
2018-04-30T01:24:27.759Z,940.46
2018-04-30T01:25:27.785Z,940.46
2018-04-30T01:26:27.814Z,940.48
2018-04-30T01:27:27.837Z,940.48
2018-04-30T01:28:27.862Z,940.46
2018-04-30T01:29:27.887Z,940.5
2018-04-30T01:30:27.911Z,940.47
2018-04-30T01:31:27.937Z,940.5
2018-04-30T01:32:27.963Z,940.54
2018-04-30T01:33:27.988Z,940.5
2018-04-30T01:34:28.029Z,940.54
2018-04-30T01:35:28.039Z,940.55
2018-04-30T01:36:28.065Z,940.56
2018-04-30T01:37:28.091Z,940.52
2018-04-30T01:38:28.116Z,940.54
2018-04-30T01:39:28.192Z,940.51
2018-04-30T01:40:28.167Z,940.55
2018-04-30T01:41:28.191Z,940.49
2018-04-30T01:42:28.218Z,940.47
2018-04-30T01:43:28.244Z,940.46
2018-04-30T01:44:28.268Z,940.43
2018-04-30T01:45:28.294Z,940.45
2018-04-30T01:46:28.320Z,940.47
2018-04-30T01:47:28.345Z,940.4
2018-04-30T01:48:28.372Z,940.46
2018-04-30T01:49:28.398Z,940.46
2018-04-30T01:50:28.423Z,940.45
2018-04-30T01:51:28.450Z,940.4
2018-04-30T01:52:28.472Z,940.4
2018-04-30T01:53:28.501Z,940.47
2018-04-30T01:54:28.574Z,940.42
2018-04-30T01:55:28.555Z,940.43
2018-04-30T01:56:28.575Z,940.44
2018-04-30T01:57:28.600Z,940.36
2018-04-30T01:58:28.626Z,940.37
2018-04-30T01:59:28.651Z,940.4
2018-04-30T02:00:28.682Z,940.4
2018-04-30T02:01:28.700Z,940.41
2018-04-30T02:02:28.726Z,940.38
2018-04-30T02:03:28.751Z,940.37
2018-04-30T02:04:28.827Z,940.41
2018-04-30T02:05:28.802Z,940.39
2018-04-30T02:06:28.828Z,940.4
2018-04-30T02:07:28.852Z,940.43
2018-04-30T02:08:28.879Z,940.42
2018-04-30T02:09:28.904Z,940.44
2018-04-30T02:10:28.929Z,940.43
2018-04-30T02:11:28.953Z,940.4
2018-04-30T02:12:29.071Z,940.42
2018-04-30T02:13:29.004Z,940.39
2018-04-30T02:14:29.028Z,940.41
2018-04-30T02:15:29.054Z,940.39
2018-04-30T02:16:29.078Z,940.36
2018-04-30T02:17:29.105Z,940.36
2018-04-30T02:18:29.128Z,940.33
2018-04-30T02:19:29.158Z,940.27
2018-04-30T02:20:29.229Z,940.35
2018-04-30T02:21:29.204Z,940.31
2018-04-30T02:22:29.228Z,940.29
2018-04-30T02:23:29.257Z,940.23
2018-04-30T02:24:29.278Z,940.24
2018-04-30T02:25:29.307Z,940.31
2018-04-30T02:26:29.329Z,940.23
2018-04-30T02:27:29.355Z,940.29
2018-04-30T02:28:29.386Z,940.32
2018-04-30T02:29:29.404Z,940.21
2018-04-30T02:30:29.429Z,940.3
2018-04-30T02:31:29.457Z,940.26
2018-04-30T02:32:29.479Z,940.29
2018-04-30T02:33:29.568Z,940.28
2018-04-30T02:34:29.535Z,940.25
2018-04-30T02:35:29.606Z,940.25
2018-04-30T02:36:29.578Z,940.27
2018-04-30T02:37:29.620Z,940.31
2018-04-30T02:38:29.629Z,940.35
2018-04-30T02:39:29.655Z,940.35
2018-04-30T02:40:29.680Z,940.39
2018-04-30T02:41:29.709Z,940.35
2018-04-30T02:42:29.732Z,940.37
2018-04-30T02:43:29.757Z,940.35
2018-04-30T02:44:29.782Z,940.29
2018-04-30T02:45:29.809Z,940.38
2018-04-30T02:46:29.831Z,940.35
2018-04-30T02:47:29.856Z,940.37
2018-04-30T02:48:29.881Z,940.39
2018-04-30T02:49:29.907Z,940.47
2018-04-30T02:50:29.981Z,940.44
2018-04-30T02:51:29.956Z,940.44
2018-04-30T02:52:29.981Z,940.53
2018-04-30T02:53:30.012Z,940.57
2018-04-30T02:54:30.032Z,940.58
2018-04-30T02:55:30.056Z,940.59
2018-04-30T02:56:30.081Z,940.6
2018-04-30T02:57:30.108Z,940.61
2018-04-30T02:58:30.151Z,940.64
2018-04-30T02:59:30.156Z,940.63
2018-04-30T03:00:30.282Z,940.64
2018-04-30T03:01:30.206Z,940.69
2018-04-30T03:02:30.230Z,940.73
2018-04-30T03:03:30.256Z,940.77
2018-04-30T03:04:30.281Z,940.85
2018-04-30T03:05:30.356Z,940.96
2018-04-30T03:06:30.331Z,941.17
2018-04-30T03:07:30.365Z,941.44
2018-04-30T03:08:30.381Z,941.42
2018-04-30T03:09:30.405Z,941.45
2018-04-30T03:10:30.431Z,941.4
2018-04-30T03:11:30.456Z,941.45
2018-04-30T03:12:30.483Z,941.39
2018-04-30T03:13:30.506Z,941.3
2018-04-30T03:14:30.542Z,941.38
2018-04-30T03:15:30.554Z,941.41
2018-04-30T03:16:30.578Z,941.48
2018-04-30T03:17:30.603Z,941.46
2018-04-30T03:18:30.627Z,941.49
2018-04-30T03:19:30.656Z,941.53
2018-04-30T03:20:30.730Z,941.62
2018-04-30T03:21:30.700Z,941.61
2018-04-30T03:22:30.725Z,941.67
2018-04-30T03:23:30.753Z,941.71
2018-04-30T03:24:30.774Z,941.79
2018-04-30T03:25:30.799Z,941.94
2018-04-30T03:26:30.824Z,941.97
2018-04-30T03:27:30.847Z,942.03
2018-04-30T03:28:30.875Z,942.07
2018-04-30T03:29:30.901Z,942.12
2018-04-30T03:30:30.920Z,942.19
2018-04-30T03:31:30.944Z,942.12
2018-04-30T03:32:31.040Z,942.1
2018-04-30T03:33:30.992Z,942.27
2018-04-30T03:34:31.017Z,942.36
2018-04-30T03:35:31.090Z,942.48
2018-04-30T03:36:31.064Z,942.41
2018-04-30T03:37:31.089Z,942.49
2018-04-30T03:38:31.111Z,942.36
2018-04-30T03:39:31.134Z,942.47
2018-04-30T03:40:31.159Z,942.46
2018-04-30T03:41:31.181Z,942.57
2018-04-30T03:42:31.206Z,942.61
2018-04-30T03:43:31.230Z,942.8
2018-04-30T03:44:31.255Z,942.73
2018-04-30T03:45:31.277Z,942.68
2018-04-30T03:46:31.301Z,942.89
2018-04-30T03:47:31.323Z,942.85
2018-04-30T03:48:31.347Z,943.13
2018-04-30T03:49:31.369Z,942.98
2018-04-30T03:50:31.444Z,943.08
2018-04-30T03:51:31.417Z,943.13
2018-04-30T03:52:31.440Z,943.28
2018-04-30T03:53:31.467Z,943.27
2018-04-30T03:54:31.487Z,943.11
2018-04-30T03:55:31.509Z,943.25
2018-04-30T03:56:31.533Z,943.3
2018-04-30T03:57:31.555Z,943.36
2018-04-30T03:58:31.580Z,943.37
2018-04-30T03:59:31.603Z,943.45
2018-04-30T04:00:31.624Z,943.61
2018-04-30T04:01:31.648Z,943.6
2018-04-30T04:02:31.672Z,943.68
2018-04-30T04:03:31.709Z,943.82
2018-04-30T04:04:31.717Z,943.79
2018-04-30T04:05:31.740Z,943.8
2018-04-30T04:06:31.814Z,943.78
2018-04-30T04:07:31.787Z,943.7
2018-04-30T04:08:31.808Z,943.75
2018-04-30T04:09:31.833Z,943.73
2018-04-30T04:10:31.855Z,943.71
2018-04-30T04:11:31.877Z,943.77
2018-04-30T04:12:31.904Z,943.84
2018-04-30T04:13:31.924Z,943.84
2018-04-30T04:14:31.946Z,943.99
2018-04-30T04:15:31.970Z,943.9
2018-04-30T04:16:31.993Z,943.97
2018-04-30T04:17:32.016Z,944.1
2018-04-30T04:18:32.037Z,944.1
2018-04-30T04:19:32.059Z,944.26
2018-04-30T04:20:32.082Z,944.33
2018-04-30T04:21:32.155Z,944.19
2018-04-30T04:22:32.127Z,944.3
2018-04-30T04:23:32.150Z,944.31
2018-04-30T04:24:32.173Z,944.58
2018-04-30T04:25:32.197Z,944.6
2018-04-30T04:26:32.234Z,944.73
2018-04-30T04:27:32.246Z,944.84
2018-04-30T04:28:32.264Z,944.99
2018-04-30T04:29:32.287Z,944.99
2018-04-30T04:30:32.308Z,945.04
2018-04-30T04:31:32.333Z,945.03
2018-04-30T04:32:32.353Z,945.05
2018-04-30T04:33:32.376Z,944.96
2018-04-30T04:34:32.398Z,944.93
2018-04-30T04:35:32.423Z,944.99
2018-04-30T04:36:32.492Z,944.78
2018-04-30T04:37:32.464Z,945.13
2018-04-30T04:38:32.487Z,945.07
2018-04-30T04:39:32.508Z,945.3
2018-04-30T04:40:32.530Z,945.38
2018-04-30T04:41:32.552Z,945.34
2018-04-30T04:42:32.574Z,945.41
2018-04-30T04:43:32.596Z,945.5
2018-04-30T04:44:32.617Z,945.48
2018-04-30T04:45:32.640Z,945.54
2018-04-30T04:46:32.661Z,945.71
2018-04-30T04:47:32.688Z,945.77
2018-04-30T04:48:32.704Z,945.87
2018-04-30T04:49:32.727Z,945.89
2018-04-30T04:50:32.748Z,945.81
2018-04-30T04:51:32.817Z,945.72
2018-04-30T04:52:32.789Z,945.89
2018-04-30T04:53:32.811Z,945.97
2018-04-30T04:54:32.831Z,945.97
2018-04-30T04:55:32.851Z,946.02
2018-04-30T04:56:32.876Z,946.14
2018-04-30T04:57:32.894Z,946.04
2018-04-30T04:58:32.915Z,946.11
2018-04-30T04:59:32.938Z,946.1
2018-04-30T05:00:32.956Z,946.02
2018-04-30T05:01:32.981Z,946.31
2018-04-30T05:02:33.004Z,946.1
2018-04-30T05:03:33.021Z,946.08
2018-04-30T05:04:33.042Z,946.11
2018-04-30T05:05:33.064Z,946.2
2018-04-30T05:06:33.133Z,946.28
2018-04-30T05:07:33.105Z,946.19
2018-04-30T05:08:33.126Z,946.24
2018-04-30T05:09:33.147Z,946.51
2018-04-30T05:10:33.168Z,946.41
2018-04-30T05:11:33.193Z,946.45
2018-04-30T05:12:33.212Z,946.54
2018-04-30T05:13:33.229Z,946.67
2018-04-30T05:14:33.251Z,946.7
2018-04-30T05:15:33.271Z,946.67
2018-04-30T05:16:33.301Z,946.73
2018-04-30T05:17:33.312Z,946.56
2018-04-30T05:18:33.335Z,946.6
2018-04-30T05:19:33.355Z,946.67
2018-04-30T05:20:33.375Z,946.75
2018-04-30T05:21:33.448Z,946.76
2018-04-30T05:22:33.415Z,946.81
2018-04-30T05:23:33.436Z,946.87
2018-04-30T05:24:33.457Z,946.99
2018-04-30T05:25:33.479Z,946.91
2018-04-30T05:26:33.500Z,946.97
2018-04-30T05:27:33.519Z,946.96
2018-04-30T05:28:33.540Z,946.9
2018-04-30T05:29:33.563Z,946.98
2018-04-30T05:30:33.580Z,946.99
2018-04-30T05:31:33.601Z,947.1
2018-04-30T05:32:33.619Z,947.1
2018-04-30T05:33:33.641Z,947.09
2018-04-30T05:34:33.661Z,947.12
2018-04-30T05:35:33.681Z,947.17
2018-04-30T05:36:33.753Z,947.21
2018-04-30T05:37:33.722Z,947.26
2018-04-30T05:38:33.750Z,947.19
2018-04-30T05:39:33.764Z,947.28
2018-04-30T05:40:33.784Z,947.39
2018-04-30T05:41:33.805Z,947.66
2018-04-30T05:42:33.827Z,947.4
2018-04-30T05:43:33.847Z,947.3
2018-04-30T05:44:33.866Z,947.42
2018-04-30T05:45:33.887Z,947.27
2018-04-30T05:46:33.907Z,947.38
2018-04-30T05:47:33.926Z,947.4
2018-04-30T05:48:33.947Z,947.55
2018-04-30T05:49:33.969Z,947.35
2018-04-30T05:50:33.993Z,947.37
2018-04-30T05:51:34.102Z,947.43
2018-04-30T05:52:34.032Z,947.4
2018-04-30T05:53:34.050Z,947.52
2018-04-30T05:54:34.069Z,947.41
2018-04-30T05:55:34.090Z,947.4
2018-04-30T05:56:34.109Z,947.35
2018-04-30T05:57:34.129Z,947.49
2018-04-30T05:58:34.149Z,947.53
2018-04-30T05:59:34.169Z,947.45
2018-04-30T06:00:34.237Z,947.41
2018-04-30T06:01:34.209Z,947.47
2018-04-30T06:02:34.228Z,947.45
2018-04-30T06:03:34.248Z,947.4
2018-04-30T06:04:34.269Z,947.42
2018-04-30T06:05:34.291Z,947.4
2018-04-30T06:06:34.359Z,947.46
2018-04-30T06:07:34.335Z,947.5
2018-04-30T06:08:34.348Z,947.54
2018-04-30T06:09:34.367Z,947.7
2018-04-30T06:10:34.389Z,947.55
2018-04-30T06:11:34.410Z,947.55
2018-04-30T06:12:34.429Z,947.56
2018-04-30T06:13:34.450Z,947.68
2018-04-30T06:14:34.470Z,947.62
2018-04-30T06:15:34.488Z,947.72
2018-04-30T06:16:34.509Z,947.54
2018-04-30T06:17:34.545Z,947.53
2018-04-30T06:18:34.549Z,947.62
2018-04-30T06:19:34.569Z,947.73
2018-04-30T06:20:34.588Z,947.5
2018-04-30T06:21:34.662Z,947.51
2018-04-30T06:22:34.628Z,947.48
2018-04-30T06:23:34.648Z,947.42
2018-04-30T06:24:34.669Z,947.46
2018-04-30T06:25:34.690Z,947.48
2018-04-30T06:26:34.721Z,947.35
2018-04-30T06:27:34.728Z,947.39
2018-04-30T06:28:34.749Z,947.45
2018-04-30T06:29:34.769Z,947.53
2018-04-30T06:30:34.792Z,947.64
2018-04-30T06:31:34.809Z,947.61
2018-04-30T06:32:34.828Z,947.68
2018-04-30T06:33:34.849Z,947.76
2018-04-30T06:34:34.867Z,947.77
2018-04-30T06:35:34.887Z,947.77
2018-04-30T06:36:34.955Z,947.75
2018-04-30T06:37:34.925Z,947.75
2018-04-30T06:38:34.944Z,947.76
2018-04-30T06:39:34.964Z,947.71
2018-04-30T06:40:34.985Z,947.67
2018-04-30T06:41:35.029Z,947.76
2018-04-30T06:42:35.024Z,947.73
2018-04-30T06:43:35.068Z,947.79
2018-04-30T06:44:35.063Z,947.87
2018-04-30T06:45:35.085Z,947.86
2018-04-30T06:46:35.103Z,947.85
2018-04-30T06:47:35.125Z,947.81
2018-04-30T06:48:35.139Z,947.71
2018-04-30T06:49:35.164Z,947.71
2018-04-30T06:50:35.180Z,947.75
2018-04-30T06:51:35.250Z,947.9
2018-04-30T06:52:35.218Z,947.96
2018-04-30T06:53:35.281Z,948
2018-04-30T06:54:35.257Z,947.93
2018-04-30T06:55:35.277Z,947.86
2018-04-30T06:56:35.299Z,947.84
2018-04-30T06:57:35.316Z,947.79
2018-04-30T06:58:35.346Z,947.87
2018-04-30T06:59:35.353Z,947.85
2018-04-30T07:00:35.375Z,947.99
2018-04-30T07:01:35.392Z,948.03
2018-04-30T07:02:35.412Z,948.06
2018-04-30T07:03:35.432Z,948.04
2018-04-30T07:04:35.451Z,948.05
2018-04-30T07:05:35.472Z,947.96
2018-04-30T07:06:35.568Z,947.95
2018-04-30T07:07:35.516Z,947.88
2018-04-30T07:08:35.529Z,947.84
2018-04-30T07:09:35.734Z,947.81
2018-04-30T07:10:35.568Z,947.77
2018-04-30T07:11:35.588Z,947.69
2018-04-30T07:12:35.626Z,947.75
2018-04-30T07:13:35.628Z,947.8
2018-04-30T07:14:35.648Z,947.79
2018-04-30T07:15:35.667Z,947.75
2018-04-30T07:16:35.686Z,947.72
2018-04-30T07:17:35.707Z,947.77
2018-04-30T07:18:35.726Z,947.74
2018-04-30T07:19:35.745Z,947.79
2018-04-30T07:20:35.766Z,947.83
2018-04-30T07:21:35.845Z,947.84
2018-04-30T07:22:35.807Z,947.81
2018-04-30T07:23:35.827Z,947.84
2018-04-30T07:24:35.847Z,947.77
2018-04-30T07:25:35.869Z,947.8
2018-04-30T07:26:35.888Z,947.77
2018-04-30T07:27:35.954Z,947.83
2018-04-30T07:28:35.931Z,947.82
2018-04-30T07:29:35.948Z,947.82
2018-04-30T07:30:35.968Z,947.85
2018-04-30T07:31:35.989Z,947.87
2018-04-30T07:32:36.009Z,947.87
2018-04-30T07:33:36.031Z,947.81
2018-04-30T07:34:36.051Z,947.78
2018-04-30T07:35:36.135Z,947.73
2018-04-30T07:36:36.142Z,947.71
2018-04-30T07:37:36.113Z,947.68
2018-04-30T07:38:36.133Z,947.56
2018-04-30T07:39:36.154Z,947.54
2018-04-30T07:40:36.176Z,947.53
2018-04-30T07:41:36.196Z,947.5
2018-04-30T07:42:36.216Z,947.55
2018-04-30T07:43:36.236Z,947.53
2018-04-30T07:44:36.258Z,947.51
2018-04-30T07:45:36.279Z,947.5
2018-04-30T07:46:36.300Z,947.55
2018-04-30T07:47:36.322Z,947.52
2018-04-30T07:48:36.343Z,947.53
2018-04-30T07:49:36.365Z,947.54
2018-04-30T07:50:36.383Z,947.59
2018-04-30T07:51:36.456Z,947.64
2018-04-30T07:52:36.427Z,947.65
2018-04-30T07:53:36.450Z,947.59
2018-04-30T07:54:36.525Z,947.57
2018-04-30T07:55:36.492Z,947.52
2018-04-30T07:56:36.564Z,947.58
2018-04-30T07:57:36.536Z,947.64
2018-04-30T07:58:36.557Z,947.64
2018-04-30T07:59:36.579Z,947.67
2018-04-30T08:00:36.600Z,947.69
2018-04-30T08:01:36.619Z,947.71
2018-04-30T08:02:36.642Z,947.69
2018-04-30T08:03:36.664Z,947.68
2018-04-30T08:04:36.687Z,947.67
2018-04-30T08:05:36.709Z,947.67
2018-04-30T08:06:36.783Z,947.69
2018-04-30T08:07:36.752Z,947.74
2018-04-30T08:08:36.775Z,947.75
2018-04-30T08:09:36.795Z,947.74
2018-04-30T08:10:36.819Z,947.72
2018-04-30T08:11:36.843Z,947.77
2018-04-30T08:12:36.866Z,947.83
2018-04-30T08:13:36.888Z,947.76
2018-04-30T08:14:36.915Z,947.82
2018-04-30T08:15:36.935Z,947.76
2018-04-30T08:16:36.960Z,947.76
2018-04-30T08:17:36.985Z,947.66
2018-04-30T08:18:37.004Z,947.69
2018-04-30T08:19:37.027Z,947.66
2018-04-30T08:20:37.062Z,947.67
2018-04-30T08:21:37.162Z,947.62
2018-04-30T08:22:37.098Z,947.68
2018-04-30T08:23:37.120Z,947.65
2018-04-30T08:24:37.143Z,947.67
2018-04-30T08:25:37.166Z,947.63
2018-04-30T08:26:37.188Z,947.7
2018-04-30T08:27:37.211Z,947.74
2018-04-30T08:28:37.235Z,947.77
2018-04-30T08:29:37.259Z,947.76
2018-04-30T08:30:37.283Z,947.73
2018-04-30T08:31:37.303Z,947.69
2018-04-30T08:32:37.327Z,947.74
2018-04-30T08:33:37.350Z,947.78
2018-04-30T08:34:37.372Z,947.77
2018-04-30T08:35:37.396Z,947.69
2018-04-30T08:36:37.496Z,947.77
2018-04-30T08:37:37.441Z,947.77
2018-04-30T08:38:37.468Z,947.73
2018-04-30T08:39:37.487Z,947.73
2018-04-30T08:40:37.508Z,947.69
2018-04-30T08:41:37.584Z,947.7
2018-04-30T08:42:37.553Z,947.76
2018-04-30T08:43:37.576Z,947.86
2018-04-30T08:44:37.602Z,947.79
2018-04-30T08:45:37.632Z,947.83
2018-04-30T08:46:37.648Z,947.78
2018-04-30T08:47:37.666Z,947.75
2018-04-30T08:48:37.688Z,947.77
2018-04-30T08:49:37.710Z,947.83
2018-04-30T08:50:37.735Z,947.79
2018-04-30T08:51:37.807Z,947.79
2018-04-30T08:52:37.779Z,947.76
2018-04-30T08:53:37.802Z,947.77
2018-04-30T08:54:37.824Z,947.78
2018-04-30T08:55:37.919Z,947.8
2018-04-30T08:56:37.870Z,947.77
2018-04-30T08:57:37.903Z,947.74
2018-04-30T08:58:37.916Z,947.73
2018-04-30T08:59:37.940Z,947.7
2018-04-30T09:00:38.050Z,947.66
2018-04-30T09:01:37.986Z,947.69
2018-04-30T09:02:38.009Z,947.69
2018-04-30T09:03:38.033Z,947.72
2018-04-30T09:04:38.054Z,947.73
2018-04-30T09:05:38.079Z,947.76
2018-04-30T09:06:38.155Z,947.77
2018-04-30T09:07:38.124Z,947.78
2018-04-30T09:08:38.147Z,947.73
2018-04-30T09:09:38.262Z,947.66
2018-04-30T09:10:38.246Z,947.65
2018-04-30T09:11:38.218Z,947.69
2018-04-30T09:12:38.241Z,947.76
2018-04-30T09:13:38.265Z,947.7
2018-04-30T09:14:38.288Z,947.76
2018-04-30T09:15:38.311Z,947.75
2018-04-30T09:16:38.435Z,947.75
2018-04-30T09:17:38.360Z,947.72
2018-04-30T09:18:38.382Z,947.72
2018-04-30T09:19:38.406Z,947.71
2018-04-30T09:20:38.428Z,947.73
2018-04-30T09:21:38.504Z,947.72
2018-04-30T09:22:38.476Z,947.74
2018-04-30T09:23:38.500Z,947.8
2018-04-30T09:24:38.523Z,947.71
2018-04-30T09:25:38.552Z,947.68
2018-04-30T09:26:38.572Z,947.66
2018-04-30T09:27:38.595Z,947.71
2018-04-30T09:28:38.620Z,947.73
2018-04-30T09:29:38.643Z,947.72
2018-04-30T09:30:38.666Z,947.71
2018-04-30T09:31:38.691Z,947.71
2018-04-30T09:32:38.717Z,947.75
2018-04-30T09:33:38.739Z,947.78
2018-04-30T09:34:38.764Z,947.8
2018-04-30T09:35:38.788Z,947.85
2018-04-30T09:36:38.863Z,947.83
2018-04-30T09:37:38.842Z,947.84
2018-04-30T09:38:38.868Z,947.82
2018-04-30T09:39:38.894Z,947.77
2018-04-30T09:40:38.916Z,947.76
2018-04-30T09:41:38.944Z,947.81
2018-04-30T09:42:38.969Z,947.83
2018-04-30T09:43:38.996Z,947.76
2018-04-30T09:44:39.021Z,947.8
2018-04-30T09:45:39.048Z,947.77
2018-04-30T09:46:39.075Z,947.89
2018-04-30T09:47:39.100Z,947.85
2018-04-30T09:48:39.126Z,947.82
2018-04-30T09:49:39.154Z,947.81
2018-04-30T09:50:39.179Z,947.84
2018-04-30T09:51:39.254Z,947.86
2018-04-30T09:52:39.233Z,947.84
2018-04-30T09:53:39.260Z,947.86
2018-04-30T09:54:39.286Z,947.86
2018-04-30T09:55:39.317Z,947.85
2018-04-30T09:56:39.347Z,947.86
2018-04-30T09:57:39.457Z,947.89
2018-04-30T09:58:39.396Z,947.82
2018-04-30T09:59:39.423Z,947.86
2018-04-30T10:00:39.451Z,947.84
2018-04-30T10:01:39.477Z,947.86
2018-04-30T10:02:39.504Z,947.72
2018-04-30T10:03:39.532Z,947.78
2018-04-30T10:04:39.559Z,947.76
2018-04-30T10:05:39.590Z,947.73
2018-04-30T10:06:39.665Z,947.74
2018-04-30T10:07:39.643Z,947.72
2018-04-30T10:08:39.672Z,947.78
2018-04-30T10:09:39.707Z,947.84
2018-04-30T10:10:39.728Z,947.85
2018-04-30T10:11:39.810Z,947.88
2018-04-30T10:12:39.782Z,947.88
2018-04-30T10:13:39.809Z,947.83
2018-04-30T10:14:39.840Z,947.83
2018-04-30T10:15:39.866Z,947.87
2018-04-30T10:16:39.897Z,947.88
2018-04-30T10:17:39.944Z,947.91
2018-04-30T10:18:39.953Z,947.91
2018-04-30T10:19:39.982Z,947.89
2018-04-30T10:20:40.011Z,947.85
2018-04-30T10:21:40.041Z,947.88
2018-04-30T10:22:40.072Z,947.85
2018-04-30T10:23:40.217Z,947.81
2018-04-30T10:24:40.131Z,947.8
2018-04-30T10:25:40.161Z,947.82
2018-04-30T10:26:40.242Z,947.81
2018-04-30T10:27:40.222Z,947.76
2018-04-30T10:28:40.368Z,947.8
2018-04-30T10:29:40.339Z,947.79
2018-04-30T10:30:40.311Z,947.87
2018-04-30T10:31:40.414Z,947.87
2018-04-30T10:32:40.369Z,947.89
2018-04-30T10:33:40.401Z,947.87
2018-04-30T10:34:40.430Z,947.87
2018-04-30T10:35:40.460Z,947.82
2018-04-30T10:36:40.591Z,947.84
2018-04-30T10:37:40.595Z,947.79
2018-04-30T10:38:40.556Z,947.79
2018-04-30T10:39:40.580Z,947.7
2018-04-30T10:40:40.610Z,947.81
2018-04-30T10:41:40.691Z,947.76
2018-04-30T10:42:40.670Z,947.7
2018-04-30T10:43:40.699Z,947.68
2018-04-30T10:44:40.741Z,947.69
2018-04-30T10:45:40.814Z,947.72
2018-04-30T10:46:40.838Z,947.71
2018-04-30T10:47:40.817Z,947.73
2018-04-30T10:48:40.847Z,947.7
2018-04-30T10:49:40.877Z,947.75
2018-04-30T10:50:40.906Z,947.68
2018-04-30T10:51:41.034Z,947.67
2018-04-30T10:52:40.967Z,947.69
2018-04-30T10:53:40.995Z,947.69
2018-04-30T10:54:41.026Z,947.67
2018-04-30T10:55:41.056Z,947.62
2018-04-30T10:56:41.090Z,947.58
2018-04-30T10:57:41.119Z,947.57
2018-04-30T10:58:41.148Z,947.57
2018-04-30T10:59:41.178Z,947.54
2018-04-30T11:00:41.208Z,947.54
2018-04-30T11:01:41.238Z,947.57
2018-04-30T11:02:41.322Z,947.63
2018-04-30T11:03:41.299Z,947.6
2018-04-30T11:04:41.327Z,947.55
2018-04-30T11:05:41.356Z,947.58
2018-04-30T11:06:41.435Z,947.55
2018-04-30T11:07:41.417Z,947.57
2018-04-30T11:08:41.443Z,947.55
2018-04-30T11:09:41.472Z,947.55
2018-04-30T11:10:41.502Z,947.55
2018-04-30T11:11:41.528Z,947.58
2018-04-30T11:12:41.556Z,947.59
2018-04-30T11:13:41.585Z,947.55
2018-04-30T11:14:41.614Z,947.56
2018-04-30T11:15:41.641Z,947.6
2018-04-30T11:16:41.669Z,947.59
2018-04-30T11:17:41.697Z,947.58
2018-04-30T11:18:41.727Z,947.6
2018-04-30T11:19:41.754Z,947.58
2018-04-30T11:20:41.781Z,947.58
2018-04-30T11:21:41.861Z,947.6
2018-04-30T11:22:41.901Z,947.61
2018-04-30T11:23:41.866Z,947.58
2018-04-30T11:24:41.895Z,947.69
2018-04-30T11:25:41.923Z,947.7
2018-04-30T11:26:41.950Z,947.68
2018-04-30T11:27:41.986Z,947.66
2018-04-30T11:28:42.007Z,947.7
2018-04-30T11:29:42.037Z,947.6
2018-04-30T11:30:42.066Z,947.56
2018-04-30T11:31:42.094Z,947.55
2018-04-30T11:32:42.125Z,947.49
2018-04-30T11:33:42.153Z,947.52
2018-04-30T11:34:42.182Z,947.54
2018-04-30T11:35:42.213Z,947.49
2018-04-30T11:36:42.291Z,947.5
2018-04-30T11:37:42.272Z,947.53
2018-04-30T11:38:42.301Z,947.54
2018-04-30T11:39:42.331Z,947.71
2018-04-30T11:40:42.360Z,947.73
2018-04-30T11:41:42.389Z,947.72
2018-04-30T11:42:42.419Z,947.76
2018-04-30T11:43:42.452Z,947.8
2018-04-30T11:44:42.478Z,947.6
2018-04-30T11:45:42.510Z,947.77
2018-04-30T11:46:42.541Z,947.77
2018-04-30T11:47:42.570Z,947.73
2018-04-30T11:48:42.603Z,947.8
2018-04-30T11:49:42.631Z,947.76
2018-04-30T11:50:42.664Z,947.73
2018-04-30T11:51:42.750Z,947.72
2018-04-30T11:52:42.728Z,947.73
2018-04-30T11:53:42.760Z,947.7
2018-04-30T11:54:42.793Z,947.7
2018-04-30T11:55:42.825Z,947.73
2018-04-30T11:56:42.863Z,947.76
2018-04-30T11:57:42.893Z,947.78
2018-04-30T11:58:42.995Z,947.75
2018-04-30T11:59:42.959Z,947.83
2018-04-30T12:00:42.992Z,947.6
2018-04-30T12:01:43.077Z,947.72
2018-04-30T12:02:43.062Z,947.76
2018-04-30T12:03:43.093Z,947.77
2018-04-30T12:04:43.126Z,947.58
2018-04-30T12:05:43.161Z,947.6
2018-04-30T12:06:43.243Z,947.62
2018-04-30T12:07:43.226Z,947.75
2018-04-30T12:08:43.259Z,947.74
2018-04-30T12:09:43.291Z,947.87
2018-04-30T12:10:43.324Z,947.84
2018-04-30T12:11:49.623Z,947.95
2018-04-30T12:12:43.396Z,948.01
2018-04-30T12:13:43.423Z,947.86
2018-04-30T12:14:43.464Z,947.82
2018-04-30T12:15:43.488Z,947.71
2018-04-30T12:16:43.525Z,947.75
2018-04-30T12:17:43.555Z,947.69
2018-04-30T12:18:43.588Z,947.67
2018-04-30T12:19:43.621Z,947.73
2018-04-30T12:20:43.654Z,947.72
2018-04-30T12:21:43.740Z,947.7
2018-04-30T12:22:43.717Z,947.72
2018-04-30T12:23:43.748Z,947.67
2018-04-30T12:24:43.782Z,947.68
2018-04-30T12:25:43.813Z,947.66
2018-04-30T12:26:43.944Z,947.61
2018-04-30T12:27:43.878Z,947.62
2018-04-30T12:28:43.907Z,947.58
2018-04-30T12:29:43.996Z,947.53
2018-04-30T12:30:43.970Z,947.5
2018-04-30T12:31:44.027Z,947.51